Iris Halo — 3ECA8 — position and weather

sailwx.info

Track history (hours):
 
Tides and Currents Weather Stations Pressure Air Temp Water Temp Dewpoint Dewpoint Depression Visibility Wind Speed Wind Dir Waves Ship Positions

Iris Halo

Last reported at 2018-Jun-09 03:44 UTC. Time now 2018-Jun-25 03:39 UTC.
Position N 34°59' E 139°41'.
Warning: this ship's position is 15 days out of date.

Length 190 m; draft 10.4 m.

Type: Ship. MMSI: 371281000.

Date/timePositionNaut miles runAvg speedWind from/ knotsBaromVisibWave heightAir tempDewpointWater temp
2018-Jun-09 03:44N 34°59' E 139°41'312.0
2018-Jun-09 03:30N 35°01' E 139°42'611.7
2018-Jun-09 02:57N 35°07' E 139°45'510.9
2018-Jun-09 02:30N 35°12' E 139°46'5 9.6
2018-Jun-09 02:00N 35°17' E 139°45'611.6
2018-Jun-09 01:31N 35°22' E 139°42'611.6
2018-Jun-09 01:00N 35°27' E 139°47'612.5
2018-Jun-09 00:31N 35°30' E 139°53'4 8.2
2018-Jun-09 00:01N 35°31' E 139°58'0 0.4
2018-Jun-08 23:27N 35°32' E 139°58'0 0.0
2018-Jun-08 22:21N 35°32' E 139°58'0 0.0
2018-Jun-08 21:54N 35°32' E 139°58'0 0.0
2018-Jun-08 21:30N 35°32' E 139°58'0 0.1
2018-Jun-08 20:51N 35°32' E 139°58'0 0.0
2018-Jun-08 20:03N 35°32' E 139°58'0 0.0
2018-Jun-08 19:39N 35°32' E 139°58'0 0.0
2018-Jun-08 19:15N 35°32' E 139°58'0 0.0
2018-Jun-08 18:57N 35°32' E 139°58'0 0.1
2018-Jun-08 18:30N 35°32' E 139°58'0 0.0
2018-Jun-08 17:09N 35°32' E 139°58'0 0.0
2018-Jun-08 17:00N 35°32' E 139°58'0 0.0
2018-Jun-08 16:30N 35°32' E 139°58'0 0.1
2018-Jun-08 16:00N 35°32' E 139°58'0 0.1
2018-Jun-08 15:24N 35°32' E 139°58'0 0.0
2018-Jun-08 14:51N 35°32' E 139°58'0 0.0
2018-Jun-08 14:27N 35°32' E 139°58'0 0.1
2018-Jun-08 13:57N 35°32' E 139°58'0 0.1
2018-Jun-08 13:30N 35°32' E 139°58'0 0.0
2018-Jun-08 13:00N 35°32' E 139°58'0 0.0
2018-Jun-08 12:27N 35°32' E 139°58'0 0.0
2018-Jun-08 12:00N 35°32' E 139°58'0 0.0
2018-Jun-08 11:24N 35°32' E 139°58'0 0.0
2018-Jun-08 10:57N 35°32' E 139°58'0 0.0
2018-Jun-08 10:30N 35°32' E 139°58'0 0.0
2018-Jun-08 10:00N 35°32' E 139°58'0 0.0
2018-Jun-08 09:30N 35°32' E 139°58'0 0.0
2018-Jun-08 09:00N 35°32' E 139°58'0 0.0
2018-Jun-08 08:30N 35°32' E 139°58'0 0.0
2018-Jun-08 08:00N 35°32' E 139°58'0 0.1
2018-Jun-08 07:30N 35°32' E 139°58'1 1.1
2018-Jun-08 07:00N 35°31' E 139°57'4 8.9
2018-Jun-08 06:30N 35°29' E 139°53'713.3
2018-Jun-08 06:00N 35°25' E 139°46'5 9.8
2018-Jun-08 05:31N 35°24' E 139°40'2 4.2
2018-Jun-08 05:01N 35°24' E 139°38'0 0.1
2018-Jun-08 04:30N 35°24' E 139°37'0 0.0
2018-Jun-08 03:59N 35°24' E 139°37'0 0.0
2018-Jun-08 03:29N 35°24' E 139°37'0 0.0
2018-Jun-08 02:59N 35°24' E 139°37'0 0.0
2018-Jun-08 02:30N 35°24' E 139°37'0 0.0
2018-Jun-08 02:00N 35°24' E 139°37'0 0.0
2018-Jun-08 01:30N 35°24' E 139°37'0 0.0
2018-Jun-08 00:59N 35°24' E 139°37'0 0.0
2018-Jun-08 00:29N 35°24' E 139°37'0 0.0
2018-Jun-07 23:56N 35°24' E 139°37'0 0.0
2018-Jun-07 23:29N 35°24' E 139°37'0 0.0
2018-Jun-07 23:00N 35°24' E 139°37'0 0.0
2018-Jun-07 22:29N 35°24' E 139°37'0 0.0
2018-Jun-07 21:59N 35°24' E 139°37'0 0.0
2018-Jun-07 21:29N 35°24' E 139°37'0 0.0
2018-Jun-07 20:59N 35°24' E 139°37'0 0.0
2018-Jun-07 20:29N 35°24' E 139°37'0 0.0
2018-Jun-07 20:00N 35°24' E 139°37'0 0.0
2018-Jun-07 19:29N 35°24' E 139°37'0 0.0
2018-Jun-07 18:59N 35°24' E 139°37'0 0.0
2018-Jun-07 18:29N 35°24' E 139°37'0 0.0
2018-Jun-07 17:59N 35°24' E 139°37'0 0.0
2018-Jun-07 17:30N 35°24' E 139°37'0 0.0
2018-Jun-07 17:00N 35°24' E 139°37'0 0.0
2018-Jun-07 16:30N 35°24' E 139°37'0 0.0
2018-Jun-07 16:00N 35°24' E 139°37'0 0.0
2018-Jun-07 15:29N 35°24' E 139°37'0 0.0
2018-Jun-07 15:00N 35°24' E 139°37'0 0.0
2018-Jun-07 14:30N 35°24' E 139°37'0 0.0
2018-Jun-07 14:00N 35°24' E 139°37'0 0.0
2018-Jun-07 13:30N 35°24' E 139°37'0 0.0
2018-Jun-07 12:59N 35°24' E 139°37'0 0.0
2018-Jun-07 12:30N 35°24' E 139°37'0 0.0
2018-Jun-07 11:59N 35°24' E 139°37'0 0.0
2018-Jun-07 11:30N 35°24' E 139°37'0 0.0
2018-Jun-07 11:00N 35°24' E 139°37'0 0.0
2018-Jun-07 10:30N 35°24' E 139°37'0 0.0
2018-Jun-07 09:59N 35°24' E 139°37'0 0.0
2018-Jun-07 09:29N 35°24' E 139°37'0 0.0
2018-Jun-07 09:00N 35°24' E 139°37'0 0.0
2018-Jun-07 08:29N 35°24' E 139°37'0 0.0
2018-Jun-07 07:59N 35°24' E 139°37'0 0.0
2018-Jun-07 07:29N 35°24' E 139°37'0 0.0
2018-Jun-07 06:59N 35°24' E 139°37'0 0.0
2018-Jun-07 06:30N 35°24' E 139°37'0 0.0
2018-Jun-07 05:59N 35°24' E 139°37'0 0.0
2018-Jun-07 05:29N 35°24' E 139°37'0 0.0
2018-Jun-07 05:00N 35°24' E 139°37'0 0.0
2018-Jun-07 04:29N 35°24' E 139°37'0 0.0
2018-Jun-07 03:59N 35°24' E 139°37'0 0.0
2018-Jun-07 03:29N 35°24' E 139°37'0 0.0
2018-Jun-07 03:00N 35°24' E 139°37'0 0.0
2018-Jun-07 02:30N 35°24' E 139°37'0 0.0
2018-Jun-07 02:00N 35°24' E 139°37'0 0.0
2018-Jun-07 01:29N 35°24' E 139°37'0 0.0
2018-Jun-07 00:59N 35°24' E 139°37'0 0.0
2018-Jun-07 00:30N 35°24' E 139°37'0 0.0
2018-Jun-07 00:00N 35°24' E 139°37'0 0.0
2018-Jun-06 23:29N 35°24' E 139°37'0 0.0
2018-Jun-06 22:59N 35°24' E 139°37'0 0.0
2018-Jun-06 22:29N 35°24' E 139°37'0 0.0
2018-Jun-06 22:00N 35°24' E 139°37'0 0.0
2018-Jun-06 21:30N 35°24' E 139°37'0 0.0
2018-Jun-06 21:00N 35°24' E 139°37'0 0.0
2018-Jun-06 20:29N 35°24' E 139°37'0 0.0
2018-Jun-06 20:00N 35°24' E 139°37'0 0.0
2018-Jun-06 19:30N 35°24' E 139°37'0 0.0
2018-Jun-06 19:00N 35°24' E 139°37'0 0.0
2018-Jun-06 18:29N 35°24' E 139°37'0 0.0
2018-Jun-06 18:00N 35°24' E 139°37'0 0.0
2018-Jun-06 17:30N 35°24' E 139°37'0 0.0
2018-Jun-06 17:00N 35°24' E 139°37'0 0.0
2018-Jun-06 16:29N 35°24' E 139°37'0 0.0
2018-Jun-06 15:59N 35°24' E 139°37'0 0.0
2018-Jun-06 15:29N 35°24' E 139°37'0 0.0
2018-Jun-06 15:00N 35°24' E 139°37'0 0.0
2018-Jun-06 14:30N 35°24' E 139°37'0 0.0
2018-Jun-06 14:00N 35°24' E 139°37'0 0.0
2018-Jun-06 13:29N 35°24' E 139°37'0 0.0
2018-Jun-06 13:00N 35°24' E 139°37'0 0.0
2018-Jun-06 12:29N 35°24' E 139°37'0 0.0
2018-Jun-06 11:59N 35°24' E 139°37'0 0.0
2018-Jun-06 11:29N 35°24' E 139°37'0 0.0
2018-Jun-06 10:59N 35°24' E 139°37'0 0.0
2018-Jun-06 10:29N 35°24' E 139°37'0 0.0
2018-Jun-06 10:00N 35°24' E 139°37'0 0.0
2018-Jun-06 09:30N 35°24' E 139°37'0 0.0
2018-Jun-06 08:53N 35°24' E 139°37'0 0.0
2018-Jun-06 08:27N 35°24' E 139°37'0 0.0
2018-Jun-06 08:00N 35°24' E 139°37'0 0.0
2018-Jun-06 07:27N 35°24' E 139°37'0 0.0
2018-Jun-06 06:59N 35°24' E 139°37'0 0.0
2018-Jun-06 06:29N 35°24' E 139°37'0 0.0
2018-Jun-06 06:00N 35°24' E 139°37'0 0.0
2018-Jun-06 05:29N 35°24' E 139°37'0 0.0
2018-Jun-06 04:59N 35°24' E 139°37'0 0.0
2018-Jun-06 04:30N 35°24' E 139°37'0 0.0
2018-Jun-06 03:57N 35°24' E 139°37'0 0.0
2018-Jun-06 03:29N 35°24' E 139°37'0 0.0
2018-Jun-06 02:59N 35°24' E 139°37'0 0.0
2018-Jun-06 02:29N 35°24' E 139°37'0 0.0
2018-Jun-06 02:00N 35°24' E 139°37'0 0.0
2018-Jun-06 01:29N 35°24' E 139°37'0 0.0
2018-Jun-06 01:00N 35°24' E 139°37'0 0.0
2018-Jun-06 00:30N 35°24' E 139°37'0 0.0
2018-Jun-05 23:56N 35°24' E 139°37'0 0.0
2018-Jun-05 23:30N 35°24' E 139°37'0 0.0
2018-Jun-05 23:00N 35°24' E 139°37'0 0.0
2018-Jun-05 22:29N 35°24' E 139°37'0 0.0
2018-Jun-05 22:00N 35°24' E 139°37'0 0.0
2018-Jun-05 21:29N 35°24' E 139°37'0 0.0
2018-Jun-05 21:00N 35°24' E 139°37'0 0.0
2018-Jun-05 20:30N 35°24' E 139°37'0 0.0
2018-Jun-05 20:00N 35°24' E 139°37'0 0.0
2018-Jun-05 19:30N 35°24' E 139°37'0 0.0
2018-Jun-05 18:57N 35°24' E 139°37'0 0.0
2018-Jun-05 18:29N 35°24' E 139°37'0 0.0
2018-Jun-05 17:59N 35°24' E 139°37'0 0.0
2018-Jun-05 17:29N 35°24' E 139°37'0 0.0
2018-Jun-05 16:59N 35°24' E 139°37'0 0.0
2018-Jun-05 16:30N 35°24' E 139°37'0 0.0
2018-Jun-05 15:59N 35°24' E 139°37'0 0.0
2018-Jun-05 15:29N 35°24' E 139°37'0 0.0
2018-Jun-05 14:59N 35°24' E 139°37'0 0.0
2018-Jun-05 14:30N 35°24' E 139°37'0 0.0
2018-Jun-05 14:00N 35°24' E 139°37'0 0.0
2018-Jun-05 13:27N 35°24' E 139°37'0 0.0
2018-Jun-05 12:59N 35°24' E 139°37'0 0.0
2018-Jun-05 12:26N 35°24' E 139°37'0 0.0
2018-Jun-05 12:00N 35°24' E 139°37'0 0.0
2018-Jun-05 11:29N 35°24' E 139°37'0 0.0
2018-Jun-05 11:00N 35°24' E 139°37'0 0.0
2018-Jun-05 10:27N 35°24' E 139°37'0 0.0
2018-Jun-05 10:00N 35°24' E 139°37'0 0.0
2018-Jun-05 09:29N 35°24' E 139°37'0 0.0
2018-Jun-05 09:00N 35°24' E 139°37'0 0.0
2018-Jun-05 08:30N 35°24' E 139°37'0 0.0
2018-Jun-05 07:59N 35°24' E 139°37'0 0.0
2018-Jun-05 07:30N 35°24' E 139°37'0 0.0
2018-Jun-05 06:56N 35°24' E 139°37'0 0.0
2018-Jun-05 06:29N 35°24' E 139°37'0 0.0
2018-Jun-05 06:00N 35°24' E 139°37'0 0.0
2018-Jun-05 05:30N 35°24' E 139°37'0 0.0
2018-Jun-05 04:59N 35°24' E 139°37'0 0.0
2018-Jun-05 04:30N 35°24' E 139°37'0 0.0
2018-Jun-05 04:00N 35°24' E 139°37'0 0.0
2018-Jun-05 03:30N 35°24' E 139°37'0 0.0
2018-Jun-05 03:00N 35°24' E 139°37'0 0.0
2018-Jun-05 02:26N 35°24' E 139°37'0 0.0
2018-Jun-05 01:59N 35°24' E 139°37'0 0.0
2018-Jun-05 01:29N 35°24' E 139°37'0 0.0
2018-Jun-05 01:00N 35°24' E 139°37'0 0.0
2018-Jun-05 00:29N 35°24' E 139°37'0 0.0
2018-Jun-05 00:00N 35°24' E 139°37'0 0.0
2018-Jun-04 23:30N 35°24' E 139°37'0 0.0
2018-Jun-04 22:59N 35°24' E 139°37'0 0.0
2018-Jun-04 22:29N 35°24' E 139°37'0 0.0
2018-Jun-04 21:59N 35°24' E 139°37'0 0.0
2018-Jun-04 21:26N 35°24' E 139°37'0 0.0
2018-Jun-04 21:00N 35°24' E 139°37'0 0.0
2018-Jun-04 20:30N 35°24' E 139°37'0 0.0
2018-Jun-04 20:00N 35°24' E 139°37'0 0.0
2018-Jun-04 19:30N 35°24' E 139°37'0 0.0
2018-Jun-04 19:00N 35°24' E 139°37'0 0.0
2018-Jun-04 18:30N 35°24' E 139°37'0 0.0
2018-Jun-04 18:00N 35°24' E 139°37'0 0.0
2018-Jun-04 17:30N 35°24' E 139°37'0 0.0
2018-Jun-04 16:59N 35°24' E 139°37'0 0.0
2018-Jun-04 16:30N 35°24' E 139°37'0 0.0
2018-Jun-04 15:59N 35°24' E 139°37'0 0.0
2018-Jun-04 15:27N 35°24' E 139°37'0 0.0
2018-Jun-04 14:59N 35°24' E 139°37'0 0.0
2018-Jun-04 14:29N 35°24' E 139°37'0 0.0
2018-Jun-04 13:59N 35°24' E 139°37'0 0.0
2018-Jun-04 13:30N 35°24' E 139°37'0 0.0
2018-Jun-04 13:00N 35°24' E 139°37'0 0.0
2018-Jun-04 12:30N 35°24' E 139°37'0 0.0
2018-Jun-04 12:00N 35°24' E 139°37'0 0.0
2018-Jun-04 11:27N 35°24' E 139°37'0 0.0
2018-Jun-04 10:59N 35°24' E 139°37'0 0.0
2018-Jun-04 10:29N 35°24' E 139°37'0 0.0
2018-Jun-04 10:00N 35°24' E 139°37'0 0.0
2018-Jun-04 09:29N 35°24' E 139°37'0 0.0
2018-Jun-04 09:00N 35°24' E 139°37'0 0.0
2018-Jun-04 08:29N 35°24' E 139°37'0 0.0
2018-Jun-04 07:59N 35°24' E 139°37'0 0.0
2018-Jun-04 07:27N 35°24' E 139°37'0 0.0
2018-Jun-04 06:59N 35°24' E 139°37'0 0.0
2018-Jun-04 06:29N 35°24' E 139°37'0 0.0
2018-Jun-04 05:53N 35°24' E 139°37'0 0.0
2018-Jun-04 05:30N 35°24' E 139°37'0 0.0
2018-Jun-04 04:59N 35°24' E 139°37'0 0.0
2018-Jun-04 04:29N 35°24' E 139°37'0 0.0
2018-Jun-04 04:00N 35°24' E 139°37'0 0.0
2018-Jun-04 03:29N 35°24' E 139°37'0 0.0
2018-Jun-04 02:56N 35°24' E 139°37'0 0.0
2018-Jun-04 02:30N 35°24' E 139°37'0 0.0
2018-Jun-04 01:56N 35°24' E 139°37'0 0.0
2018-Jun-04 01:30N 35°24' E 139°37'0 0.0
2018-Jun-04 01:00N 35°24' E 139°37'0 0.0
2018-Jun-04 00:29N 35°24' E 139°37'0 0.0
2018-Jun-04 00:00N 35°24' E 139°37'0 0.0
2018-Jun-03 23:29N 35°24' E 139°37'0 0.1
2018-Jun-03 23:01N 35°24' E 139°38'0 0.7
2018-Jun-03 22:31N 35°24' E 139°38'2 3.0
2018-Jun-03 22:01N 35°24' E 139°40'3 5.1
2018-Jun-03 21:31N 35°25' E 139°43'2 3.1
2018-Jun-03 21:00N 35°26' E 139°44'0 0.2
2018-Jun-03 20:30N 35°26' E 139°44'0 0.0
2018-Jun-03 20:00N 35°26' E 139°44'0 0.1
2018-Jun-03 19:30N 35°26' E 139°44'0 0.0
2018-Jun-03 19:00N 35°26' E 139°44'0 0.0
2018-Jun-03 18:30N 35°26' E 139°44'0 0.0
2018-Jun-03 18:00N 35°26' E 139°44'0 0.0
2018-Jun-03 17:30N 35°26' E 139°44'0 0.1
2018-Jun-03 17:00N 35°26' E 139°44'0 0.2
2018-Jun-03 16:30N 35°26' E 139°44'0 0.2
2018-Jun-03 16:00N 35°26' E 139°44'0 0.0
2018-Jun-03 15:30N 35°26' E 139°44'0 0.1
2018-Jun-03 15:00N 35°26' E 139°44'0 0.1
2018-Jun-03 14:30N 35°26' E 139°44'0 0.0
2018-Jun-03 14:00N 35°26' E 139°44'0 0.1
2018-Jun-03 13:30N 35°26' E 139°44'0 0.1
2018-Jun-03 13:00N 35°26' E 139°44'0 0.0
2018-Jun-03 12:30N 35°26' E 139°44'0 0.0
2018-Jun-03 12:00N 35°26' E 139°44'0 0.0
2018-Jun-03 11:30N 35°26' E 139°44'0 0.1
2018-Jun-03 11:00N 35°26' E 139°44'0 0.1
2018-Jun-03 10:30N 35°26' E 139°44'0 0.0
2018-Jun-03 10:00N 35°26' E 139°44'0 0.0
2018-Jun-03 09:30N 35°26' E 139°44'0 0.0
2018-Jun-03 09:00N 35°26' E 139°44'0 0.0
2018-Jun-03 08:30N 35°26' E 139°44'0 0.0
2018-Jun-03 08:00N 35°26' E 139°44'0 0.0
2018-Jun-03 07:30N 35°26' E 139°44'0 0.0
2018-Jun-03 07:00N 35°26' E 139°44'0 0.0
2018-Jun-03 06:30N 35°26' E 139°44'0 0.1
2018-Jun-03 06:00N 35°26' E 139°44'0 0.1
2018-Jun-03 05:30N 35°26' E 139°44'0 0.1
2018-Jun-03 05:00N 35°26' E 139°44'0 0.0
2018-Jun-03 04:30N 35°26' E 139°44'0 0.0
2018-Jun-03 04:00N 35°26' E 139°44'0 0.1
2018-Jun-03 03:30N 35°26' E 139°44'0 0.0
2018-Jun-03 02:57N 35°26' E 139°44'0 0.0
2018-Jun-03 02:30N 35°26' E 139°44'0 0.0
2018-Jun-03 02:00N 35°26' E 139°44'0 0.1
2018-Jun-03 01:30N 35°26' E 139°44'0 0.0
2018-Jun-03 01:00N 35°26' E 139°44'0 0.0
2018-Jun-03 00:30N 35°26' E 139°44'0 0.2
2018-Jun-03 00:00N 35°26' E 139°44'0 0.2
2018-Jun-02 23:31N 35°26' E 139°44'0 0.1
2018-Jun-02 23:00N 35°26' E 139°44'0 0.0
2018-Jun-02 22:30N 35°26' E 139°44'0 0.2
2018-Jun-02 22:00N 35°26' E 139°44'3 6.4
2018-Jun-02 21:30N 35°23' E 139°43'611.8
2018-Jun-02 21:00N 35°18' E 139°45'611.4
2018-Jun-02 20:30N 35°12' E 139°47'4 8.6
2018-Jun-02 20:00N 35°08' E 139°46'3 6.7
2018-Jun-02 19:30N 35°05' E 139°45'4 7.4
2018-Jun-02 19:00N 35°01' E 139°43'4 7.5
2018-Jun-02 18:30N 34°58' E 139°42'5 6.7
2018-Jun-02 17:47N 34°54' E 139°45'3 9.3
2018-Jun-02 17:30N 34°52' E 139°47'  
Track history (hours):
 
Tides and Currents Weather Stations Pressure Air Temp Water Temp Dewpoint Dewpoint Depression Visibility Wind Speed Wind Dir Waves Ship Positions

Iris Halo

Last reported at 2018-Jun-09 03:44 UTC. Time now 2018-Jun-25 03:39 UTC.
Position N 34°59' E 139°41'.
Warning: this ship's position is 15 days out of date.

Length 190 m; draft 10.4 m.

Type: Ship. MMSI: 371281000.

Date/timePositionNaut miles runAvg speedWind from/ knotsBaromVisibWave heightAir tempDewpointWater temp
2018-Jun-09 03:44N 34°59' E 139°41'312.0
2018-Jun-09 03:30N 35°01' E 139°42'611.7
2018-Jun-09 02:57N 35°07' E 139°45'510.9
2018-Jun-09 02:30N 35°12' E 139°46'5 9.6
2018-Jun-09 02:00N 35°17' E 139°45'611.6
2018-Jun-09 01:31N 35°22' E 139°42'611.6
2018-Jun-09 01:00N 35°27' E 139°47'612.5
2018-Jun-09 00:31N 35°30' E 139°53'4 8.2
2018-Jun-09 00:01N 35°31' E 139°58'0 0.4
2018-Jun-08 23:27N 35°32' E 139°58'0 0.0
2018-Jun-08 22:21N 35°32' E 139°58'0 0.0
2018-Jun-08 21:54N 35°32' E 139°58'0 0.0
2018-Jun-08 21:30N 35°32' E 139°58'0 0.1
2018-Jun-08 20:51N 35°32' E 139°58'0 0.0
2018-Jun-08 20:03N 35°32' E 139°58'0 0.0
2018-Jun-08 19:39N 35°32' E 139°58'0 0.0
2018-Jun-08 19:15N 35°32' E 139°58'0 0.0
2018-Jun-08 18:57N 35°32' E 139°58'0 0.1
2018-Jun-08 18:30N 35°32' E 139°58'0 0.0
2018-Jun-08 17:09N 35°32' E 139°58'0 0.0
2018-Jun-08 17:00N 35°32' E 139°58'0 0.0
2018-Jun-08 16:30N 35°32' E 139°58'0 0.1
2018-Jun-08 16:00N 35°32' E 139°58'0 0.1
2018-Jun-08 15:24N 35°32' E 139°58'0 0.0
2018-Jun-08 14:51N 35°32' E 139°58'0 0.0
2018-Jun-08 14:27N 35°32' E 139°58'0 0.1
2018-Jun-08 13:57N 35°32' E 139°58'0 0.1
2018-Jun-08 13:30N 35°32' E 139°58'0 0.0
2018-Jun-08 13:00N 35°32' E 139°58'0 0.0
2018-Jun-08 12:27N 35°32' E 139°58'0 0.0
2018-Jun-08 12:00N 35°32' E 139°58'0 0.0
2018-Jun-08 11:24N 35°32' E 139°58'0 0.0
2018-Jun-08 10:57N 35°32' E 139°58'0 0.0
2018-Jun-08 10:30N 35°32' E 139°58'0 0.0
2018-Jun-08 10:00N 35°32' E 139°58'0 0.0
2018-Jun-08 09:30N 35°32' E 139°58'0 0.0
2018-Jun-08 09:00N 35°32' E 139°58'0 0.0
2018-Jun-08 08:30N 35°32' E 139°58'0 0.0
2018-Jun-08 08:00N 35°32' E 139°58'0 0.1
2018-Jun-08 07:30N 35°32' E 139°58'1 1.1
2018-Jun-08 07:00N 35°31' E 139°57'4 8.9
2018-Jun-08 06:30N 35°29' E 139°53'713.3
2018-Jun-08 06:00N 35°25' E 139°46'5 9.8
2018-Jun-08 05:31N 35°24' E 139°40'2 4.2
2018-Jun-08 05:01N 35°24' E 139°38'0 0.1
2018-Jun-08 04:30N 35°24' E 139°37'0 0.0
2018-Jun-08 03:59N 35°24' E 139°37'0 0.0
2018-Jun-08 03:29N 35°24' E 139°37'0 0.0
2018-Jun-08 02:59N 35°24' E 139°37'0 0.0
2018-Jun-08 02:30N 35°24' E 139°37'0 0.0
2018-Jun-08 02:00N 35°24' E 139°37'0 0.0
2018-Jun-08 01:30N 35°24' E 139°37'0 0.0
2018-Jun-08 00:59N 35°24' E 139°37'0 0.0
2018-Jun-08 00:29N 35°24' E 139°37'0 0.0
2018-Jun-07 23:56N 35°24' E 139°37'0 0.0
2018-Jun-07 23:29N 35°24' E 139°37'0 0.0
2018-Jun-07 23:00N 35°24' E 139°37'0 0.0
2018-Jun-07 22:29N 35°24' E 139°37'0 0.0
2018-Jun-07 21:59N 35°24' E 139°37'0 0.0
2018-Jun-07 21:29N 35°24' E 139°37'0 0.0
2018-Jun-07 20:59N 35°24' E 139°37'0 0.0
2018-Jun-07 20:29N 35°24' E 139°37'0 0.0
2018-Jun-07 20:00N 35°24' E 139°37'0 0.0
2018-Jun-07 19:29N 35°24' E 139°37'0 0.0
2018-Jun-07 18:59N 35°24' E 139°37'0 0.0
2018-Jun-07 18:29N 35°24' E 139°37'0 0.0
2018-Jun-07 17:59N 35°24' E 139°37'0 0.0
2018-Jun-07 17:30N 35°24' E 139°37'0 0.0
2018-Jun-07 17:00N 35°24' E 139°37'0 0.0
2018-Jun-07 16:30N 35°24' E 139°37'0 0.0
2018-Jun-07 16:00N 35°24' E 139°37'0 0.0
2018-Jun-07 15:29N 35°24' E 139°37'0 0.0
2018-Jun-07 15:00N 35°24' E 139°37'0 0.0
2018-Jun-07 14:30N 35°24' E 139°37'0 0.0
2018-Jun-07 14:00N 35°24' E 139°37'0 0.0
2018-Jun-07 13:30N 35°24' E 139°37'0 0.0
2018-Jun-07 12:59N 35°24' E 139°37'0 0.0
2018-Jun-07 12:30N 35°24' E 139°37'0 0.0
2018-Jun-07 11:59N 35°24' E 139°37'0 0.0
2018-Jun-07 11:30N 35°24' E 139°37'0 0.0
2018-Jun-07 11:00N 35°24' E 139°37'0 0.0
2018-Jun-07 10:30N 35°24' E 139°37'0 0.0
2018-Jun-07 09:59N 35°24' E 139°37'0 0.0
2018-Jun-07 09:29N 35°24' E 139°37'0 0.0
2018-Jun-07 09:00N 35°24' E 139°37'0 0.0
2018-Jun-07 08:29N 35°24' E 139°37'0 0.0
2018-Jun-07 07:59N 35°24' E 139°37'0 0.0
2018-Jun-07 07:29N 35°24' E 139°37'0 0.0
2018-Jun-07 06:59N 35°24' E 139°37'0 0.0
2018-Jun-07 06:30N 35°24' E 139°37'0 0.0
2018-Jun-07 05:59N 35°24' E 139°37'0 0.0
2018-Jun-07 05:29N 35°24' E 139°37'0 0.0
2018-Jun-07 05:00N 35°24' E 139°37'0 0.0
2018-Jun-07 04:29N 35°24' E 139°37'0 0.0
2018-Jun-07 03:59N 35°24' E 139°37'0 0.0
2018-Jun-07 03:29N 35°24' E 139°37'0 0.0
2018-Jun-07 03:00N 35°24' E 139°37'0 0.0
2018-Jun-07 02:30N 35°24' E 139°37'0 0.0
2018-Jun-07 02:00N 35°24' E 139°37'0 0.0
2018-Jun-07 01:29N 35°24' E 139°37'0 0.0
2018-Jun-07 00:59N 35°24' E 139°37'0 0.0
2018-Jun-07 00:30N 35°24' E 139°37'0 0.0
2018-Jun-07 00:00N 35°24' E 139°37'0 0.0
2018-Jun-06 23:29N 35°24' E 139°37'0 0.0
2018-Jun-06 22:59N 35°24' E 139°37'0 0.0
2018-Jun-06 22:29N 35°24' E 139°37'0 0.0
2018-Jun-06 22:00N 35°24' E 139°37'0 0.0
2018-Jun-06 21:30N 35°24' E 139°37'0 0.0
2018-Jun-06 21:00N 35°24' E 139°37'0 0.0
2018-Jun-06 20:29N 35°24' E 139°37'0 0.0
2018-Jun-06 20:00N 35°24' E 139°37'0 0.0
2018-Jun-06 19:30N 35°24' E 139°37'0 0.0
2018-Jun-06 19:00N 35°24' E 139°37'0 0.0
2018-Jun-06 18:29N 35°24' E 139°37'0 0.0
2018-Jun-06 18:00N 35°24' E 139°37'0 0.0
2018-Jun-06 17:30N 35°24' E 139°37'0 0.0
2018-Jun-06 17:00N 35°24' E 139°37'0 0.0
2018-Jun-06 16:29N 35°24' E 139°37'0 0.0
2018-Jun-06 15:59N 35°24' E 139°37'0 0.0
2018-Jun-06 15:29N 35°24' E 139°37'0 0.0
2018-Jun-06 15:00N 35°24' E 139°37'0 0.0
2018-Jun-06 14:30N 35°24' E 139°37'0 0.0
2018-Jun-06 14:00N 35°24' E 139°37'0 0.0
2018-Jun-06 13:29N 35°24' E 139°37'0 0.0
2018-Jun-06 13:00N 35°24' E 139°37'0 0.0
2018-Jun-06 12:29N 35°24' E 139°37'0 0.0
2018-Jun-06 11:59N 35°24' E 139°37'0 0.0
2018-Jun-06 11:29N 35°24' E 139°37'0 0.0
2018-Jun-06 10:59N 35°24' E 139°37'0 0.0
2018-Jun-06 10:29N 35°24' E 139°37'0 0.0
2018-Jun-06 10:00N 35°24' E 139°37'0 0.0
2018-Jun-06 09:30N 35°24' E 139°37'0 0.0
2018-Jun-06 08:53N 35°24' E 139°37'0 0.0
2018-Jun-06 08:27N 35°24' E 139°37'0 0.0
2018-Jun-06 08:00N 35°24' E 139°37'0 0.0
2018-Jun-06 07:27N 35°24' E 139°37'0 0.0
2018-Jun-06 06:59N 35°24' E 139°37'0 0.0
2018-Jun-06 06:29N 35°24' E 139°37'0 0.0
2018-Jun-06 06:00N 35°24' E 139°37'0 0.0
2018-Jun-06 05:29N 35°24' E 139°37'0 0.0
2018-Jun-06 04:59N 35°24' E 139°37'0 0.0
2018-Jun-06 04:30N 35°24' E 139°37'0 0.0
2018-Jun-06 03:57N 35°24' E 139°37'0 0.0
2018-Jun-06 03:29N 35°24' E 139°37'0 0.0
2018-Jun-06 02:59N 35°24' E 139°37'0 0.0
2018-Jun-06 02:29N 35°24' E 139°37'0 0.0
2018-Jun-06 02:00N 35°24' E 139°37'0 0.0
2018-Jun-06 01:29N 35°24' E 139°37'0 0.0
2018-Jun-06 01:00N 35°24' E 139°37'0 0.0
2018-Jun-06 00:30N 35°24' E 139°37'0 0.0
2018-Jun-05 23:56N 35°24' E 139°37'0 0.0
2018-Jun-05 23:30N 35°24' E 139°37'0 0.0
2018-Jun-05 23:00N 35°24' E 139°37'0 0.0
2018-Jun-05 22:29N 35°24' E 139°37'0 0.0
2018-Jun-05 22:00N 35°24' E 139°37'0 0.0
2018-Jun-05 21:29N 35°24' E 139°37'0 0.0
2018-Jun-05 21:00N 35°24' E 139°37'0 0.0
2018-Jun-05 20:30N 35°24' E 139°37'0 0.0
2018-Jun-05 20:00N 35°24' E 139°37'0 0.0
2018-Jun-05 19:30N 35°24' E 139°37'0 0.0
2018-Jun-05 18:57N 35°24' E 139°37'0 0.0
2018-Jun-05 18:29N 35°24' E 139°37'0 0.0
2018-Jun-05 17:59N 35°24' E 139°37'0 0.0
2018-Jun-05 17:29N 35°24' E 139°37'0 0.0
2018-Jun-05 16:59N 35°24' E 139°37'0 0.0
2018-Jun-05 16:30N 35°24' E 139°37'0 0.0
2018-Jun-05 15:59N 35°24' E 139°37'0 0.0
2018-Jun-05 15:29N 35°24' E 139°37'0 0.0
2018-Jun-05 14:59N 35°24' E 139°37'0 0.0
2018-Jun-05 14:30N 35°24' E 139°37'0 0.0
2018-Jun-05 14:00N 35°24' E 139°37'0 0.0
2018-Jun-05 13:27N 35°24' E 139°37'0 0.0
2018-Jun-05 12:59N 35°24' E 139°37'0 0.0
2018-Jun-05 12:26N 35°24' E 139°37'0 0.0
2018-Jun-05 12:00N 35°24' E 139°37'0 0.0
2018-Jun-05 11:29N 35°24' E 139°37'0 0.0
2018-Jun-05 11:00N 35°24' E 139°37'0 0.0
2018-Jun-05 10:27N 35°24' E 139°37'0 0.0
2018-Jun-05 10:00N 35°24' E 139°37'0 0.0
2018-Jun-05 09:29N 35°24' E 139°37'0 0.0
2018-Jun-05 09:00N 35°24' E 139°37'0 0.0
2018-Jun-05 08:30N 35°24' E 139°37'0 0.0
2018-Jun-05 07:59N 35°24' E 139°37'0 0.0
2018-Jun-05 07:30N 35°24' E 139°37'0 0.0
2018-Jun-05 06:56N 35°24' E 139°37'0 0.0
2018-Jun-05 06:29N 35°24' E 139°37'0 0.0
2018-Jun-05 06:00N 35°24' E 139°37'0 0.0
2018-Jun-05 05:30N 35°24' E 139°37'0 0.0
2018-Jun-05 04:59N 35°24' E 139°37'0 0.0
2018-Jun-05 04:30N 35°24' E 139°37'0 0.0
2018-Jun-05 04:00N 35°24' E 139°37'0 0.0
2018-Jun-05 03:30N 35°24' E 139°37'0 0.0
2018-Jun-05 03:00N 35°24' E 139°37'0 0.0
2018-Jun-05 02:26N 35°24' E 139°37'0 0.0
2018-Jun-05 01:59N 35°24' E 139°37'0 0.0
2018-Jun-05 01:29N 35°24' E 139°37'0 0.0
2018-Jun-05 01:00N 35°24' E 139°37'0 0.0
2018-Jun-05 00:29N 35°24' E 139°37'0 0.0
2018-Jun-05 00:00N 35°24' E 139°37'0 0.0
2018-Jun-04 23:30N 35°24' E 139°37'0 0.0
2018-Jun-04 22:59N 35°24' E 139°37'0 0.0
2018-Jun-04 22:29N 35°24' E 139°37'0 0.0
2018-Jun-04 21:59N 35°24' E 139°37'0 0.0
2018-Jun-04 21:26N 35°24' E 139°37'0 0.0
2018-Jun-04 21:00N 35°24' E 139°37'0 0.0
2018-Jun-04 20:30N 35°24' E 139°37'0 0.0
2018-Jun-04 20:00N 35°24' E 139°37'0 0.0
2018-Jun-04 19:30N 35°24' E 139°37'0 0.0
2018-Jun-04 19:00N 35°24' E 139°37'0 0.0
2018-Jun-04 18:30N 35°24' E 139°37'0 0.0
2018-Jun-04 18:00N 35°24' E 139°37'0 0.0
2018-Jun-04 17:30N 35°24' E 139°37'0 0.0
2018-Jun-04 16:59N 35°24' E 139°37'0 0.0
2018-Jun-04 16:30N 35°24' E 139°37'0 0.0
2018-Jun-04 15:59N 35°24' E 139°37'0 0.0
2018-Jun-04 15:27N 35°24' E 139°37'0 0.0
2018-Jun-04 14:59N 35°24' E 139°37'0 0.0
2018-Jun-04 14:29N 35°24' E 139°37'0 0.0
2018-Jun-04 13:59N 35°24' E 139°37'0 0.0
2018-Jun-04 13:30N 35°24' E 139°37'0 0.0
2018-Jun-04 13:00N 35°24' E 139°37'0 0.0
2018-Jun-04 12:30N 35°24' E 139°37'0 0.0
2018-Jun-04 12:00N 35°24' E 139°37'0 0.0
2018-Jun-04 11:27N 35°24' E 139°37'0 0.0
2018-Jun-04 10:59N 35°24' E 139°37'0 0.0
2018-Jun-04 10:29N 35°24' E 139°37'0 0.0
2018-Jun-04 10:00N 35°24' E 139°37'0 0.0
2018-Jun-04 09:29N 35°24' E 139°37'0 0.0
2018-Jun-04 09:00N 35°24' E 139°37'0 0.0
2018-Jun-04 08:29N 35°24' E 139°37'0 0.0
2018-Jun-04 07:59N 35°24' E 139°37'0 0.0
2018-Jun-04 07:27N 35°24' E 139°37'0 0.0
2018-Jun-04 06:59N 35°24' E 139°37'0 0.0
2018-Jun-04 06:29N 35°24' E 139°37'0 0.0
2018-Jun-04 05:53N 35°24' E 139°37'0 0.0
2018-Jun-04 05:30N 35°24' E 139°37'0 0.0
2018-Jun-04 04:59N 35°24' E 139°37'0 0.0
2018-Jun-04 04:29N 35°24' E 139°37'0 0.0
2018-Jun-04 04:00N 35°24' E 139°37'0 0.0
2018-Jun-04 03:29N 35°24' E 139°37'0 0.0
2018-Jun-04 02:56N 35°24' E 139°37'0 0.0
2018-Jun-04 02:30N 35°24' E 139°37'0 0.0
2018-Jun-04 01:56N 35°24' E 139°37'0 0.0
2018-Jun-04 01:30N 35°24' E 139°37'0 0.0
2018-Jun-04 01:00N 35°24' E 139°37'0 0.0
2018-Jun-04 00:29N 35°24' E 139°37'0 0.0
2018-Jun-04 00:00N 35°24' E 139°37'0 0.0
2018-Jun-03 23:29N 35°24' E 139°37'0 0.1
2018-Jun-03 23:01N 35°24' E 139°38'0 0.7
2018-Jun-03 22:31N 35°24' E 139°38'2 3.0
2018-Jun-03 22:01N 35°24' E 139°40'3 5.1
2018-Jun-03 21:31N 35°25' E 139°43'2 3.1
2018-Jun-03 21:00N 35°26' E 139°44'0 0.2
2018-Jun-03 20:30N 35°26' E 139°44'0 0.0
2018-Jun-03 20:00N 35°26' E 139°44'0 0.1
2018-Jun-03 19:30N 35°26' E 139°44'0 0.0
2018-Jun-03 19:00N 35°26' E 139°44'0 0.0
2018-Jun-03 18:30N 35°26' E 139°44'0 0.0
2018-Jun-03 18:00N 35°26' E 139°44'0 0.0
2018-Jun-03 17:30N 35°26' E 139°44'0 0.1
2018-Jun-03 17:00N 35°26' E 139°44'0 0.2
2018-Jun-03 16:30N 35°26' E 139°44'0 0.2
2018-Jun-03 16:00N 35°26' E 139°44'0 0.0
2018-Jun-03 15:30N 35°26' E 139°44'0 0.1
2018-Jun-03 15:00N 35°26' E 139°44'0 0.1
2018-Jun-03 14:30N 35°26' E 139°44'0 0.0
2018-Jun-03 14:00N 35°26' E 139°44'0 0.1
2018-Jun-03 13:30N 35°26' E 139°44'0 0.1
2018-Jun-03 13:00N 35°26' E 139°44'0 0.0
2018-Jun-03 12:30N 35°26' E 139°44'0 0.0
2018-Jun-03 12:00N 35°26' E 139°44'0 0.0
2018-Jun-03 11:30N 35°26' E 139°44'0 0.1
2018-Jun-03 11:00N 35°26' E 139°44'0 0.1
2018-Jun-03 10:30N 35°26' E 139°44'0 0.0
2018-Jun-03 10:00N 35°26' E 139°44'0 0.0
2018-Jun-03 09:30N 35°26' E 139°44'0 0.0
2018-Jun-03 09:00N 35°26' E 139°44'0 0.0
2018-Jun-03 08:30N 35°26' E 139°44'0 0.0
2018-Jun-03 08:00N 35°26' E 139°44'0 0.0
2018-Jun-03 07:30N 35°26' E 139°44'0 0.0
2018-Jun-03 07:00N 35°26' E 139°44'0 0.0
2018-Jun-03 06:30N 35°26' E 139°44'0 0.1
2018-Jun-03 06:00N 35°26' E 139°44'0 0.1
2018-Jun-03 05:30N 35°26' E 139°44'0 0.1
2018-Jun-03 05:00N 35°26' E 139°44'0 0.0
2018-Jun-03 04:30N 35°26' E 139°44'0 0.0
2018-Jun-03 04:00N 35°26' E 139°44'0 0.1
2018-Jun-03 03:30N 35°26' E 139°44'0 0.0
2018-Jun-03 02:57N 35°26' E 139°44'0 0.0
2018-Jun-03 02:30N 35°26' E 139°44'0 0.0
2018-Jun-03 02:00N 35°26' E 139°44'0 0.1
2018-Jun-03 01:30N 35°26' E 139°44'0 0.0
2018-Jun-03 01:00N 35°26' E 139°44'0 0.0
2018-Jun-03 00:30N 35°26' E 139°44'0 0.2
2018-Jun-03 00:00N 35°26' E 139°44'0 0.2
2018-Jun-02 23:31N 35°26' E 139°44'0 0.1
2018-Jun-02 23:00N 35°26' E 139°44'0 0.0
2018-Jun-02 22:30N 35°26' E 139°44'0 0.2
2018-Jun-02 22:00N 35°26' E 139°44'3 6.4
2018-Jun-02 21:30N 35°23' E 139°43'611.8
2018-Jun-02 21:00N 35°18' E 139°45'611.4
2018-Jun-02 20:30N 35°12' E 139°47'4 8.6
2018-Jun-02 20:00N 35°08' E 139°46'3 6.7
2018-Jun-02 19:30N 35°05' E 139°45'4 7.4
2018-Jun-02 19:00N 35°01' E 139°43'4 7.5
2018-Jun-02 18:30N 34°58' E 139°42'5 6.7
2018-Jun-02 17:47N 34°54' E 139°45'3 9.3
2018-Jun-02 17:30N 34°52' E 139°47'  

Dump ship's entire track history